Time;durP1;ratioP1;P1;durP2;ratioP2;P2;SDS_P1;SDS_P2;PMS_P1;PMS_P2;Temp;Humidity;BMP_temperature;BMP_pressure;BME280_temperature;BME280_humidity;BME280_pressure;Samples;Min_cycle;Max_cycle;Signal;HPM_P1;HPM_P2
2021/03/02 00:00:03;;;;;;;28.15;16.48;;;8.70;92.90;;;;;;5014489;28;20470;-72
2021/03/02 00:02:31;;;;;;;26.42;15.40;;;8.70;93.10;;;;;;5018891;28;20693;-72
2021/03/02 00:04:59;;;;;;;25.48;15.40;;;8.60;93.20;;;;;;5019190;28;20042;-72
2021/03/02 00:07:28;;;;;;;27.05;15.75;;;8.70;93.20;;;;;;5020380;28;20550;-72
2021/03/02 00:09:57;;;;;;;28.08;16.25;;;8.60;93.40;;;;;;5006157;28;20125;-72
2021/03/02 00:12:28;;;;;;;25.13;17.00;;;8.60;93.40;;;;;;5017894;28;20048;-72
2021/03/02 00:14:55;;;;;;;25.98;16.52;;;8.60;93.50;;;;;;5018630;28;20087;-72
2021/03/02 00:17:28;;;;;;;31.85;16.77;;;8.60;93.30;;;;;;5019641;28;20041;-72
2021/03/02 00:20:03;;;;;;;25.98;16.83;;;8.70;93.20;;;;;;5006747;28;20455;-72
2021/03/02 00:22:34;;;;;;;28.42;17.60;;;8.70;93.30;;;;;;5019402;28;20041;-72
2021/03/02 00:25:05;;;;;;;27.33;15.95;;;8.70;93.00;;;;;;5018999;28;20471;-72
2021/03/02 00:27:35;;;;;;;27.17;15.55;;;8.60;93.30;;;;;;5020190;28;20113;-72
2021/03/02 00:30:04;;;;;;;25.52;15.63;;;8.70;93.40;;;;;;5018545;28;20045;-72
2021/03/02 00:32:32;;;;;;;24.35;14.90;;;8.70;93.30;;;;;;5016416;28;20442;-72
2021/03/02 00:35:00;;;;;;;24.58;14.93;;;8.70;93.10;;;;;;5020269;28;20112;-72
2021/03/02 00:37:27;;;;;;;19.67;13.43;;;8.60;93.10;;;;;;5016370;28;20057;-72
2021/03/02 00:39:55;;;;;;;22.67;14.02;;;8.40;93.00;;;;;;5017574;28;20530;-72
2021/03/02 00:42:22;;;;;;;20.45;12.05;;;8.30;93.50;;;;;;5016130;28;20418;-72
2021/03/02 00:44:49;;;;;;;18.02;12.27;;;8.40;93.20;;;;;;5019345;28;20534;-72
2021/03/02 00:47:17;;;;;;;18.70;11.25;;;8.40;92.70;;;;;;5036144;28;20061;-72
2021/03/02 00:49:45;;;;;;;16.45;10.68;;;8.40;93.10;;;;;;5014513;28;20438;-72
2021/03/02 00:52:12;;;;;;;19.73;11.82;;;8.40;92.80;;;;;;5012028;28;20049;-72
2021/03/02 00:54:40;;;;;;;19.05;12.27;;;8.40;92.50;;;;;;5013630;28;20050;-72
2021/03/02 00:57:08;;;;;;;14.82;9.35;;;8.30;92.40;;;;;;5020535;28;20492;-72
2021/03/02 00:59:37;;;;;;;18.88;11.27;;;8.30;92.50;;;;;;5033039;28;20544;-72
2021/03/02 01:02:04;;;;;;;15.68;9.98;;;8.20;92.50;;;;;;5017515;28;20065;-72
2021/03/02 01:04:32;;;;;;;16.02;10.15;;;8.20;92.40;;;;;;5018052;28;20040;-72
2021/03/02 01:07:00;;;;;;;16.48;10.88;;;8.30;92.30;;;;;;5019450;28;20521;-72
2021/03/02 01:09:30;;;;;;;17.50;11.30;;;8.30;92.50;;;;;;5016624;28;20049;-73
2021/03/02 01:12:01;;;;;;;16.65;10.98;;;8.20;92.60;;;;;;5018067;28;20033;-72
2021/03/02 01:14:33;;;;;;;16.10;10.02;;;8.20;93.20;;;;;;5015762;28;20525;-72
2021/03/02 01:17:00;;;;;;;17.38;10.52;;;8.00;93.90;;;;;;5014394;28;20038;-72
2021/03/02 01:19:28;;;;;;;17.92;10.10;;;7.90;94.40;;;;;;5017585;28;20072;-72
2021/03/02 01:21:55;;;;;;;17.77;10.07;;;7.80;94.80;;;;;;5022616;28;20033;-72
2021/03/02 01:24:22;;;;;;;14.85;9.00;;;7.70;94.70;;;;;;5016760;28;20042;-73
2021/03/02 01:26:49;;;;;;;16.77;8.95;;;7.60;95.20;;;;;;5028080;28;20038;-72
2021/03/02 01:29:17;;;;;;;14.95;9.38;;;7.70;94.90;;;;;;5017687;28;20048;-72
2021/03/02 01:31:45;;;;;;;13.80;8.45;;;7.70;94.50;;;;;;5018432;28;20046;-72
2021/03/02 01:34:12;;;;;;;13.52;7.60;;;7.80;94.60;;;;;;5022725;28;20534;-72
2021/03/02 01:36:39;;;;;;;13.95;9.18;;;7.80;94.10;;;;;;5023479;28;20594;-72
2021/03/02 01:39:07;;;;;;;15.35;9.32;;;7.80;94.70;;;;;;5026030;28;20506;-72
2021/03/02 01:41:34;;;;;;;11.43;7.47;;;7.80;94.50;;;;;;5024209;28;20338;-72
2021/03/02 01:44:01;;;;;;;13.93;7.53;;;7.60;93.70;;;;;;5019672;28;20081;-73
2021/03/02 01:46:29;;;;;;;11.15;6.88;;;7.50;93.80;;;;;;5016837;28;20034;-72
2021/03/02 01:48:57;;;;;;;11.73;6.65;;;7.50;93.20;;;;;;5023588;28;20060;-72
2021/03/02 01:51:24;;;;;;;8.40;5.25;;;7.40;92.80;;;;;;5025566;28;20033;-73
2021/03/02 01:53:51;;;;;;;9.77;4.70;;;7.40;93.20;;;;;;5022223;28;20514;-72
2021/03/02 01:56:18;;;;;;;7.50;5.18;;;7.40;92.70;;;;;;5022943;28;20047;-72
2021/03/02 01:58:46;;;;;;;6.10;4.35;;;7.30;92.50;;;;;;5016932;28;20037;-72
2021/03/02 02:01:13;;;;;;;6.82;4.55;;;7.30;92.20;;;;;;5018424;28;20050;-72
2021/03/02 02:03:44;;;;;;;8.50;4.80;;;7.30;92.50;;;;;;5004171;28;20129;-72
2021/03/02 02:06:16;;;;;;;7.80;3.97;;;7.30;92.40;;;;;;5023236;28;20045;-72
2021/03/02 02:08:50;;;;;;;6.95;4.72;;;7.30;92.10;;;;;;5021048;28;20585;-72
2021/03/02 02:11:31;;;;;;;5.70;4.20;;;7.30;91.90;;;;;;5023954;28;20044;-72
2021/03/02 02:14:09;;;;;;;8.00;4.30;;;7.40;91.90;;;;;;5033200;28;20577;-72
2021/03/02 02:16:40;;;;;;;7.10;4.65;;;7.50;91.50;;;;;;5019887;28;20068;-72
2021/03/02 02:19:22;;;;;;;8.18;4.32;;;7.30;91.40;;;;;;5036072;28;20140;-72
2021/03/02 02:22:04;;;;;;;6.53;4.10;;;7.20;91.40;;;;;;5035177;28;20065;-73
2021/03/02 02:24:43;;;;;;;8.10;4.57;;;7.20;91.70;;;;;;5034768;28;20065;-72
2021/03/02 02:27:11;;;;;;;6.15;4.20;;;7.10;91.80;;;;;;5028828;28;20037;-73
2021/03/02 02:29:39;;;;;;;6.30;3.92;;;7.10;91.50;;;;;;5034479;28;20041;-72
2021/03/02 02:32:08;;;;;;;5.10;3.28;;;7.10;91.50;;;;;;5017441;28;20519;-72
2021/03/02 02:34:37;;;;;;;7.18;3.50;;;7.10;91.40;;;;;;5021660;28;20120;-72
2021/03/02 02:37:06;;;;;;;6.50;3.55;;;7.00;91.70;;;;;;5022938;28;20124;-72
2021/03/02 02:39:35;;;;;;;5.20;3.92;;;7.00;91.70;;;;;;5019454;28;20037;-72
2021/03/02 02:42:04;;;;;;;8.68;4.90;;;6.90;91.70;;;;;;5019117;28;20051;-72
2021/03/02 02:44:34;;;;;;;6.22;4.47;;;7.10;91.30;;;;;;5018256;28;20025;-72
2021/03/02 02:47:02;;;;;;;8.15;4.35;;;7.10;91.10;;;;;;5019418;28;20496;-72
2021/03/02 02:49:32;;;;;;;6.82;4.65;;;7.10;91.10;;;;;;5022150;28;20124;-72
2021/03/02 02:51:59;;;;;;;8.48;4.35;;;7.00;91.30;;;;;;5016912;28;20103;-72
2021/03/02 02:54:27;;;;;;;6.50;4.57;;;7.00;91.50;;;;;;5024523;28;20477;-72
2021/03/02 02:56:56;;;;;;;6.60;4.78;;;7.10;91.80;;;;;;5003245;28;20092;-72
2021/03/02 02:59:27;;;;;;;7.93;5.03;;;7.00;92.00;;;;;;5018823;28;20515;-72
2021/03/02 03:01:58;;;;;;;7.82;5.20;;;7.00;92.30;;;;;;5021030;28;20425;-72
2021/03/02 03:04:30;;;;;;;6.35;4.30;;;6.90;92.30;;;;;;5022223;28;20118;-72
2021/03/02 03:07:00;;;;;;;6.35;4.85;;;6.90;92.20;;;;;;5019760;28;20045;-72
2021/03/02 03:09:27;;;;;;;9.35;4.80;;;7.00;92.30;;;;;;5025194;28;20071;-72
2021/03/02 03:11:59;;;;;;;8.43;4.90;;;6.90;92.30;;;;;;5020576;28;20038;-72
2021/03/02 03:14:47;;;;;;;7.25;4.45;;;6.90;92.30;;;;;;5014903;28;20454;-72
2021/03/02 03:17:17;;;;;;;6.22;3.88;;;7.00;92.30;;;;;;5019601;28;20522;-72
2021/03/02 03:19:46;;;;;;;6.22;4.18;;;6.90;92.00;;;;;;5019969;28;20045;-72
2021/03/02 03:22:16;;;;;;;6.05;3.88;;;6.80;92.20;;;;;;5025714;28;20041;-72
2021/03/02 03:24:44;;;;;;;7.50;4.03;;;6.90;91.70;;;;;;5019134;28;20049;-72
2021/03/02 03:27:12;;;;;;;7.53;4.32;;;6.80;91.30;;;;;;5020244;28;20033;-72
2021/03/02 03:29:41;;;;;;;6.45;4.10;;;6.80;91.30;;;;;;5016142;28;20049;-72
2021/03/02 03:32:11;;;;;;;8.65;4.50;;;6.80;91.60;;;;;;5021776;28;20183;-72
2021/03/02 03:34:42;;;;;;;7.63;4.25;;;6.90;91.40;;;;;;5020545;28;20492;-72
2021/03/02 03:37:09;;;;;;;6.40;4.40;;;6.90;91.70;;;;;;5040710;28;20410;-72
2021/03/02 03:39:36;;;;;;;9.27;4.82;;;6.80;91.90;;;;;;5017724;28;20037;-72
2021/03/02 03:42:04;;;;;;;6.72;4.68;;;6.80;92.20;;;;;;5019001;28;20507;-72
2021/03/02 03:44:31;;;;;;;6.78;4.28;;;6.70;92.80;;;;;;5023454;28;20073;-72
2021/03/02 03:46:58;;;;;;;8.65;4.30;;;6.70;92.80;;;;;;5023621;28;20095;-72
2021/03/02 03:49:26;;;;;;;9.20;4.53;;;6.80;92.60;;;;;;5015313;28;20063;-72
2021/03/02 03:51:55;;;;;;;9.88;4.95;;;6.80;92.30;;;;;;5020717;28;20033;-72
2021/03/02 03:54:25;;;;;;;8.07;4.82;;;6.70;92.20;;;;;;4998481;28;20041;-72
2021/03/02 03:56:53;;;;;;;5.68;4.43;;;6.60;92.70;;;;;;5019313;28;20030;-72
2021/03/02 03:59:23;;;;;;;8.13;4.78;;;6.60;92.60;;;;;;5028804;28;20048;-73
2021/03/02 04:01:51;;;;;;;6.53;4.38;;;6.60;92.70;;;;;;5019866;28;20060;-72
2021/03/02 04:04:21;;;;;;;6.57;4.53;;;6.60;92.50;;;;;;5022021;28;20123;-72
2021/03/02 04:06:49;;;;;;;7.72;4.35;;;6.60;92.60;;;;;;5032560;28;20069;-72
2021/03/02 04:09:19;;;;;;;6.13;4.50;;;6.70;92.40;;;;;;5000913;28;20058;-72
2021/03/02 04:11:46;;;;;;;7.60;5.05;;;6.70;92.40;;;;;;5023643;28;20096;-72
2021/03/02 04:14:13;;;;;;;8.98;5.28;;;6.60;92.20;;;;;;5018114;28;20522;-72
2021/03/02 04:16:42;;;;;;;6.40;4.78;;;6.60;92.80;;;;;;5020456;28;20590;-72
2021/03/02 04:19:09;;;;;;;6.90;4.50;;;6.80;92.30;;;;;;5027347;28;20041;-72
2021/03/02 04:21:37;;;;;;;6.03;4.20;;;6.60;92.10;;;;;;5017778;28;20033;-73
2021/03/02 04:24:06;;;;;;;6.18;4.07;;;6.70;91.90;;;;;;5033203;28;20041;-72
2021/03/02 04:26:34;;;;;;;7.68;4.32;;;6.60;91.70;;;;;;5018996;28;20048;-72
2021/03/02 04:29:01;;;;;;;6.93;4.60;;;6.60;91.70;;;;;;5015173;28;20510;-72
2021/03/02 04:31:28;;;;;;;6.53;4.28;;;6.60;91.60;;;;;;5023282;28;20033;-72
2021/03/02 04:33:56;;;;;;;6.07;4.55;;;6.60;91.60;;;;;;5017468;28;20045;-72
2021/03/02 04:36:23;;;;;;;6.95;4.22;;;6.60;91.60;;;;;;5015712;28;20438;-72
2021/03/02 04:38:50;;;;;;;8.45;4.63;;;6.60;91.70;;;;;;4990793;28;20515;-72
2021/03/02 04:41:17;;;;;;;6.38;4.43;;;6.60;91.60;;;;;;5022916;28;20375;-72
2021/03/02 04:43:46;;;;;;;5.00;3.70;;;6.60;91.40;;;;;;5017201;28;20156;-72
2021/03/02 04:46:13;;;;;;;6.28;4.15;;;6.40;91.60;;;;;;5016485;28;20038;-72
2021/03/02 04:48:41;;;;;;;6.82;4.25;;;6.30;92.30;;;;;;5021502;28;20093;-72
2021/03/02 04:51:08;;;;;;;7.65;4.80;;;6.50;92.10;;;;;;5016831;28;20138;-72
2021/03/02 04:53:35;;;;;;;7.22;3.72;;;6.50;92.00;;;;;;5018206;28;20038;-72
2021/03/02 04:56:04;;;;;;;6.40;4.20;;;6.40;91.90;;;;;;5035138;22;20623;-72
2021/03/02 04:58:31;;;;;;;7.68;4.85;;;6.50;91.90;;;;;;5006840;28;20048;-72
2021/03/02 05:00:59;;;;;;;6.35;4.22;;;6.50;92.00;;;;;;5037853;28;20033;-72
2021/03/02 05:03:26;;;;;;;6.30;4.38;;;6.40;92.10;;;;;;5033255;28;20574;-72
2021/03/02 05:05:53;;;;;;;9.43;4.40;;;6.50;92.10;;;;;;5019397;28;20033;-72
2021/03/02 05:08:21;;;;;;;6.82;5.00;;;6.50;92.20;;;;;;5040029;28;20465;-72
2021/03/02 05:10:48;;;;;;;6.65;4.47;;;6.50;92.10;;;;;;5026876;28;20043;-72
2021/03/02 05:13:15;;;;;;;7.45;4.07;;;6.40;92.40;;;;;;5019564;28;20395;-72
2021/03/02 05:15:42;;;;;;;7.53;4.07;;;6.30;92.70;;;;;;5041728;28;20041;-72
2021/03/02 05:18:12;;;;;;;6.78;4.30;;;6.00;93.20;;;;;;5040548;28;20052;-72
2021/03/02 05:20:39;;;;;;;6.03;4.10;;;5.90;94.00;;;;;;5041020;28;20398;-72
2021/03/02 05:23:07;;;;;;;9.85;4.72;;;5.80;95.00;;;;;;5042080;28;20099;-72
2021/03/02 05:25:34;;;;;;;6.70;4.55;;;5.80;95.30;;;;;;5026632;28;20406;-72
2021/03/02 05:28:01;;;;;;;8.07;5.07;;;5.70;95.40;;;;;;5021438;28;20080;-72
2021/03/02 05:30:29;;;;;;;6.60;4.55;;;5.80;95.10;;;;;;5019028;28;20045;-72
2021/03/02 05:32:56;;;;;;;9.10;4.97;;;5.90;95.00;;;;;;5040731;28;20059;-72
2021/03/02 05:35:24;;;;;;;10.02;4.82;;;5.90;94.80;;;;;;5026833;28;20057;-72
2021/03/02 05:37:52;;;;;;;8.98;5.28;;;6.00;94.70;;;;;;5057332;28;20651;-71
2021/03/02 05:40:19;;;;;;;6.85;4.88;;;5.90;94.60;;;;;;5032776;28;20049;-72
2021/03/02 05:42:46;;;;;;;7.57;4.45;;;6.00;94.40;;;;;;5036676;28;20092;-72
2021/03/02 05:45:15;;;;;;;6.47;4.22;;;6.00;94.20;;;;;;5038238;28;20041;-71
2021/03/02 05:47:43;;;;;;;10.40;5.50;;;6.10;94.00;;;;;;5043089;28;20033;-71
2021/03/02 05:50:12;;;;;;;6.28;4.78;;;6.20;93.80;;;;;;5016699;28;20067;-71
2021/03/02 05:52:40;;;;;;;7.70;5.10;;;6.10;93.70;;;;;;5005959;28;20044;-71
2021/03/02 05:55:08;;;;;;;6.38;4.43;;;6.00;93.80;;;;;;5039399;28;20048;-71
2021/03/02 05:57:36;;;;;;;6.20;4.00;;;6.00;93.90;;;;;;5044319;28;20045;-72
2021/03/02 06:00:05;;;;;;;7.00;4.45;;;6.00;94.10;;;;;;5020498;28;20045;-72
2021/03/02 06:02:33;;;;;;;7.68;4.50;;;6.00;94.40;;;;;;5039445;28;20457;-72
2021/03/02 06:05:00;;;;;;;8.40;4.35;;;6.10;94.40;;;;;;5017704;28;20463;-71
2021/03/02 06:07:27;;;;;;;7.63;4.72;;;6.10;94.00;;;;;;5038196;28;20033;-71
2021/03/02 06:09:56;;;;;;;8.65;4.60;;;6.20;94.20;;;;;;5023554;28;20589;-71
2021/03/02 06:12:23;;;;;;;9.13;5.00;;;6.10;94.20;;;;;;5005184;28;20061;-71
2021/03/02 06:15:02;;;;;;;7.65;5.38;;;6.20;94.20;;;;;;5039808;28;20040;-71
2021/03/02 06:17:29;;;;;;;8.70;5.47;;;6.20;94.40;;;;;;5050714;28;20407;-72
2021/03/02 06:19:57;;;;;;;8.80;5.40;;;6.30;94.30;;;;;;5016155;28;20094;-72
2021/03/02 06:22:33;;;;;;;9.43;5.40;;;6.20;94.20;;;;;;5039981;28;20041;-71
2021/03/02 06:25:05;;;;;;;10.60;6.10;;;6.30;94.30;;;;;;5024804;28;21941;-72
2021/03/02 06:27:33;;;;;;;8.90;5.82;;;6.30;94.30;;;;;;5022967;28;20037;-72
2021/03/02 06:30:10;;;;;;;12.02;6.15;;;6.20;94.40;;;;;;5025690;28;20037;-71
2021/03/02 06:32:39;;;;;;;8.43;6.03;;;6.20;94.70;;;;;;5031453;28;20410;-72
2021/03/02 06:35:09;;;;;;;10.68;7.05;;;6.20;94.70;;;;;;5003972;28;20076;-72
2021/03/02 06:37:41;;;;;;;10.30;6.60;;;6.20;94.90;;;;;;5018587;28;20061;-71
2021/03/02 06:40:11;;;;;;;12.07;7.40;;;6.10;95.30;;;;;;5011290;28;20041;-72
2021/03/02 06:42:40;;;;;;;9.50;6.13;;;6.20;95.90;;;;;;5021418;28;20033;-71
2021/03/02 06:45:09;;;;;;;12.23;6.88;;;6.20;96.10;;;;;;5001122;28;20056;-72
2021/03/02 06:47:39;;;;;;;11.27;6.65;;;6.30;96.40;;;;;;5037504;28;20502;-71
2021/03/02 06:50:23;;;;;;;11.85;7.22;;;6.30;96.70;;;;;;5032923;28;20115;-71
2021/03/02 06:52:51;;;;;;;12.50;6.85;;;6.30;96.70;;;;;;5041594;28;20037;-71
2021/03/02 06:55:26;;;;;;;12.30;7.88;;;6.40;96.70;;;;;;5021752;28;20090;-72
2021/03/02 06:58:14;;;;;;;12.45;8.45;;;6.40;96.50;;;;;;5040194;28;20091;-71
2021/03/02 07:00:46;;;;;;;13.85;8.63;;;6.40;96.30;;;;;;5021262;28;20107;-73
2021/03/02 07:03:24;;;;;;;15.48;8.43;;;6.50;96.20;;;;;;5006142;28;20044;-73
2021/03/02 07:05:51;;;;;;;15.30;9.27;;;6.60;96.10;;;;;;5041474;28;20041;-72
2021/03/02 07:08:19;;;;;;;13.40;8.98;;;6.60;95.80;;;;;;5041520;28;20057;-73
2021/03/02 07:10:52;;;;;;;12.73;9.05;;;6.70;95.60;;;;;;5038365;28;20040;-71
2021/03/02 07:13:21;;;;;;;11.52;8.68;;;6.80;95.20;;;;;;5001710;28;20049;-71
2021/03/02 07:15:51;;;;;;;12.55;8.70;;;6.90;94.60;;;;;;5038311;28;20091;-72
2021/03/02 07:18:21;;;;;;;16.65;9.27;;;7.00;94.60;;;;;;5019116;28;20125;-72
2021/03/02 07:20:53;;;;;;;17.10;10.05;;;7.20;94.20;;;;;;5024376;28;20106;-72
2021/03/02 07:23:22;;;;;;;16.05;9.73;;;7.30;93.50;;;;;;5039684;28;20072;-73
2021/03/02 07:25:51;;;;;;;17.35;9.55;;;7.40;93.50;;;;;;5033883;28;20036;-72
2021/03/02 07:28:24;;;;;;;15.23;9.57;;;7.60;93.00;;;;;;5009061;28;20132;-72
2021/03/02 07:30:52;;;;;;;18.23;9.90;;;7.50;92.50;;;;;;5008819;28;20045;-71
2021/03/02 07:33:21;;;;;;;13.98;8.88;;;7.60;92.80;;;;;;5038358;28;20037;-71
2021/03/02 07:35:55;;;;;;;16.35;9.15;;;7.60;92.80;;;;;;5035639;28;20047;-72
2021/03/02 07:38:23;;;;;;;14.15;9.25;;;7.60;93.10;;;;;;5022115;28;20119;-72
2021/03/02 07:40:53;;;;;;;14.00;9.70;;;7.70;93.20;;;;;;5017962;28;20038;-72
2021/03/02 07:43:27;;;;;;;12.93;8.52;;;7.90;93.10;;;;;;5035052;28;20045;-72
2021/03/02 07:45:55;;;;;;;13.05;8.02;;;7.90;93.20;;;;;;5040281;28;20239;-72
2021/03/02 07:48:25;;;;;;;13.45;7.72;;;7.90;93.40;;;;;;5036959;28;20044;-72
2021/03/02 07:51:15;;;;;;;10.95;7.68;;;8.00;93.40;;;;;;5039078;28;20033;-72
2021/03/02 07:53:44;;;;;;;12.10;7.70;;;8.10;92.90;;;;;;5036585;28;20037;-72
2021/03/02 07:56:22;;;;;;;9.25;6.85;;;8.20;92.90;;;;;;5035042;28;20045;-72
2021/03/02 07:59:19;;;;;;;11.43;7.43;;;8.30;92.80;;;;;;5021924;28;21432;-72
2021/03/02 08:02:16;;;;;;;11.47;8.10;;;8.30;92.80;;;;;;5037210;28;20040;-72
2021/03/02 08:04:45;;;;;;;10.00;7.20;;;8.40;92.80;;;;;;5018872;28;20037;-72
2021/03/02 08:07:28;;;;;;;10.23;7.43;;;8.50;92.80;;;;;;5006473;28;20372;-72
2021/03/02 08:09:58;;;;;;;9.95;7.32;;;8.60;92.90;;;;;;5057666;28;22096;-72
2021/03/02 08:12:29;;;;;;;13.60;7.95;;;8.70;92.60;;;;;;5033754;28;20096;-72
2021/03/02 08:14:58;;;;;;;13.20;8.60;;;8.70;92.70;;;;;;5032564;28;20094;-72
2021/03/02 08:17:27;;;;;;;12.68;8.30;;;8.80;92.60;;;;;;5021153;28;20107;-72
2021/03/02 08:20:05;;;;;;;10.13;7.88;;;8.90;92.50;;;;;;5020737;28;20033;-72
2021/03/02 08:22:48;;;;;;;14.02;8.35;;;9.00;92.10;;;;;;5021685;28;20144;-72
2021/03/02 08:25:27;;;;;;;10.20;7.65;;;9.10;92.00;;;;;;5031891;28;20045;-72
2021/03/02 08:28:00;;;;;;;12.15;8.15;;;9.10;91.80;;;;;;5032076;28;20052;-72
2021/03/02 08:30:31;;;;;;;12.20;8.88;;;9.10;91.70;;;;;;5018922;28;20490;-72
2021/03/02 08:33:00;;;;;;;12.27;8.32;;;9.10;91.90;;;;;;5033847;28;20091;-72
2021/03/02 08:35:31;;;;;;;13.63;8.20;;;9.30;91.80;;;;;;5029909;28;20510;-72
2021/03/02 08:38:00;;;;;;;15.35;8.63;;;9.40;91.70;;;;;;5009284;28;20053;-72
2021/03/02 08:40:42;;;;;;;12.50;8.20;;;9.50;91.50;;;;;;5029048;28;20232;-71
2021/03/02 08:43:16;;;;;;;12.00;7.45;;;9.60;91.90;;;;;;5002159;28;20049;-72
2021/03/02 08:45:45;;;;;;;14.60;8.40;;;9.70;91.60;;;;;;5036621;28;20045;-72
2021/03/02 08:48:15;;;;;;;12.68;7.78;;;9.80;91.40;;;;;;5008491;28;20036;-72
2021/03/02 08:50:44;;;;;;;14.82;7.82;;;9.90;91.20;;;;;;5026957;28;20072;-72
2021/03/02 08:53:34;;;;;;;11.35;7.03;;;10.00;91.10;;;;;;5014405;28;20366;-72
2021/03/02 08:56:04;;;;;;;9.90;7.53;;;10.20;90.50;;;;;;5014263;28;20139;-71
2021/03/02 08:58:34;;;;;;;10.15;7.75;;;10.20;90.10;;;;;;5037524;28;20052;-71
2021/03/02 09:01:05;;;;;;;10.93;7.63;;;10.30;89.90;;;;;;5021000;28;20045;-72
2021/03/02 09:03:33;;;;;;;11.68;7.90;;;10.40;88.80;;;;;;5036381;28;20073;-72
2021/03/02 09:06:12;;;;;;;10.48;7.05;;;10.50;87.90;;;;;;5034034;28;20124;-72
2021/03/02 09:08:49;;;;;;;10.65;7.32;;;10.70;87.00;;;;;;5032624;28;20103;-72
2021/03/02 09:11:20;;;;;;;10.75;7.13;;;10.80;86.70;;;;;;5034455;28;20037;-72
2021/03/02 09:13:48;;;;;;;11.45;7.18;;;10.90;86.50;;;;;;5020363;28;20454;-72
2021/03/02 09:16:36;;;;;;;11.20;7.13;;;11.00;86.20;;;;;;5038030;28;20126;-72
2021/03/02 09:19:09;;;;;;;12.55;8.00;;;11.10;86.00;;;;;;5022204;28;20053;-73
2021/03/02 09:21:38;;;;;;;13.65;8.48;;;11.20;86.70;;;;;;5038134;28;20106;-72
2021/03/02 09:24:07;;;;;;;9.82;7.25;;;11.30;86.60;;;;;;5035698;28;20114;-72
2021/03/02 09:26:35;;;;;;;12.52;8.13;;;11.40;86.00;;;;;;5019422;28;20503;-72
2021/03/02 09:29:09;;;;;;;11.70;8.15;;;11.50;86.40;;;;;;5034256;28;20049;-72
2021/03/02 09:31:38;;;;;;;12.48;9.00;;;11.70;85.90;;;;;;5037110;28;20110;-72
2021/03/02 09:34:06;;;;;;;10.00;7.65;;;11.80;85.40;;;;;;5035923;28;20194;-72
2021/03/02 09:36:34;;;;;;;11.35;8.00;;;11.80;85.40;;;;;;5020614;28;20187;-72
2021/03/02 09:39:18;;;;;;;10.25;7.03;;;12.00;85.40;;;;;;5035418;28;20614;-73
2021/03/02 09:41:46;;;;;;;12.48;7.38;;;12.10;85.10;;;;;;5036046;28;20055;-73
2021/03/02 09:44:24;;;;;;;11.45;7.95;;;12.20;85.00;;;;;;5005422;28;20041;-73
2021/03/02 09:46:54;;;;;;;12.05;7.85;;;12.40;84.30;;;;;;5033053;28;20128;-73
2021/03/02 09:49:42;;;;;;;11.98;7.82;;;12.60;84.60;;;;;;5018200;28;20043;-73
2021/03/02 09:52:27;;;;;;;13.65;8.75;;;12.70;83.90;;;;;;5020087;28;20052;-73
2021/03/02 09:55:11;;;;;;;12.20;8.13;;;12.80;83.70;;;;;;5037807;28;20410;-73
2021/03/02 09:57:57;;;;;;;11.25;8.00;;;12.90;82.90;;;;;;5024340;28;20399;-72
2021/03/02 10:00:27;;;;;;;11.13;7.75;;;13.00;82.80;;;;;;5023912;28;20064;-72
2021/03/02 10:02:56;;;;;;;11.43;8.25;;;13.00;82.90;;;;;;5040502;28;20032;-72
2021/03/02 10:05:32;;;;;;;12.23;8.15;;;13.10;83.10;;;;;;5009161;28;20447;-72
2021/03/02 10:08:14;;;;;;;11.65;8.20;;;13.30;83.00;;;;;;5023707;28;20053;-72
2021/03/02 10:10:42;;;;;;;11.60;7.82;;;13.30;82.60;;;;;;5042712;28;20032;-72
2021/03/02 10:13:10;;;;;;;13.25;8.27;;;13.40;82.40;;;;;;5051340;28;20413;-72
2021/03/02 10:15:38;;;;;;;11.45;8.25;;;13.40;82.40;;;;;;5022595;28;20041;-72
2021/03/02 10:18:23;;;;;;;13.45;8.13;;;13.60;82.00;;;;;;5042896;28;20041;-72
2021/03/02 10:21:06;;;;;;;10.13;7.70;;;13.70;81.80;;;;;;5053079;28;20421;-73
2021/03/02 10:23:34;;;;;;;10.57;8.05;;;14.00;81.10;;;;;;5021254;28;20045;-72
2021/03/02 10:26:01;;;;;;;13.30;7.95;;;14.20;79.70;;;;;;5024441;28;20124;-72
2021/03/02 10:28:30;;;;;;;13.30;8.25;;;14.30;79.80;;;;;;5038585;28;20122;-72
2021/03/02 10:30:59;;;;;;;12.70;8.30;;;14.40;80.40;;;;;;5040401;28;20572;-72
2021/03/02 10:33:27;;;;;;;10.05;7.32;;;14.70;79.20;;;;;;5038870;28;20445;-70
2021/03/02 10:35:56;;;;;;;10.15;7.22;;;14.70;78.80;;;;;;5036838;28;20059;-69
2021/03/02 10:38:23;;;;;;;10.95;7.95;;;14.70;78.60;;;;;;5021712;28;20071;-70
2021/03/02 10:40:51;;;;;;;10.07;7.35;;;14.90;78.90;;;;;;5037118;28;20037;-69
2021/03/02 10:43:18;;;;;;;14.45;7.97;;;14.90;78.50;;;;;;5003846;28;20049;-69
2021/03/02 10:45:46;;;;;;;10.95;7.75;;;14.80;78.70;;;;;;5024164;28;20123;-70
2021/03/02 10:48:16;;;;;;;11.38;8.18;;;14.90;78.80;;;;;;5019226;28;20414;-70
2021/03/02 10:50:44;;;;;;;12.02;8.90;;;15.00;78.00;;;;;;5037687;28;20033;-70
2021/03/02 10:53:11;;;;;;;10.30;7.95;;;15.00;78.30;;;;;;5022012;28;20044;-70
2021/03/02 10:55:39;;;;;;;11.88;7.57;;;15.30;78.50;;;;;;5022511;28;20049;-70
2021/03/02 10:58:07;;;;;;;10.48;7.45;;;15.70;76.90;;;;;;5040502;28;20057;-69
2021/03/02 11:00:34;;;;;;;10.18;7.70;;;15.70;76.60;;;;;;5039761;28;20111;-70
2021/03/02 11:03:03;;;;;;;11.18;8.43;;;15.80;75.60;;;;;;5039928;28;20068;-70
2021/03/02 11:05:31;;;;;;;12.30;7.78;;;16.00;75.80;;;;;;5037467;28;20033;-69
2021/03/02 11:07:59;;;;;;;11.25;7.20;;;16.20;75.00;;;;;;5039230;28;20041;-70
2021/03/02 11:10:27;;;;;;;9.65;6.63;;;16.40;74.30;;;;;;5039468;28;20033;-70
2021/03/02 11:12:54;;;;;;;11.63;6.63;;;16.40;72.70;;;;;;5016999;28;20041;-70
2021/03/02 11:15:21;;;;;;;8.52;6.60;;;16.60;72.40;;;;;;5008295;28;20497;-70
2021/03/02 11:17:49;;;;;;;9.07;6.57;;;16.70;72.60;;;;;;4995422;28;20065;-70
2021/03/02 11:20:34;;;;;;;8.32;6.38;;;16.70;71.00;;;;;;5036195;28;20060;-70
2021/03/02 11:23:02;;;;;;;10.95;6.57;;;16.80;71.20;;;;;;5038040;28;20071;-70
2021/03/02 11:25:33;;;;;;;11.25;5.97;;;16.90;71.20;;;;;;5040692;28;20550;-70
2021/03/02 11:28:01;;;;;;;9.25;6.20;;;17.00;70.50;;;;;;5018582;28;20099;-70
2021/03/02 11:30:31;;;;;;;8.15;5.88;;;16.90;70.60;;;;;;5020929;28;20111;-72
2021/03/02 11:32:59;;;;;;;8.23;6.18;;;17.00;70.20;;;;;;5022553;28;20115;-71
2021/03/02 11:35:27;;;;;;;7.55;5.75;;;17.10;70.30;;;;;;5032733;28;20097;-70
2021/03/02 11:37:55;;;;;;;8.95;6.43;;;17.30;69.50;;;;;;5017796;28;20453;-71
2021/03/02 11:40:24;;;;;;;8.65;5.10;;;17.50;69.90;;;;;;5019804;28;20383;-72
2021/03/02 11:42:52;;;;;;;7.43;4.93;;;17.70;67.20;;;;;;5039990;28;20484;-72
2021/03/02 11:45:21;;;;;;;6.15;4.13;;;17.80;67.10;;;;;;5037068;28;20494;-71
2021/03/02 11:47:49;;;;;;;4.88;3.75;;;17.70;65.40;;;;;;5021966;28;20103;-71
2021/03/02 11:50:18;;;;;;;3.78;3.28;;;17.80;64.70;;;;;;5020357;28;20036;-70
2021/03/02 11:52:46;;;;;;;5.28;3.10;;;17.90;62.80;;;;;;5031802;28;20499;-71
2021/03/02 11:55:16;;;;;;;7.40;5.72;;;18.20;62.40;;;;;;5021038;28;20040;-70
2021/03/02 11:57:43;;;;;;;25.83;7.10;;;18.40;62.20;;;;;;5021919;28;20045;-70
2021/03/02 12:00:13;;;;;;;14.00;5.53;;;18.60;61.10;;;;;;5035184;28;20041;-70
2021/03/02 12:02:40;;;;;;;8.27;4.47;;;18.80;62.00;;;;;;5023307;28;20498;-70
2021/03/02 12:05:10;;;;;;;4.68;3.42;;;18.90;61.20;;;;;;5052652;28;20396;-70
2021/03/02 12:07:38;;;;;;;9.50;5.90;;;19.00;59.90;;;;;;5038107;28;20032;-70
2021/03/02 12:10:09;;;;;;;4.75;3.13;;;19.20;61.00;;;;;;5015175;28;20383;-70
2021/03/02 12:12:37;;;;;;;6.95;3.60;;;19.30;58.80;;;;;;5037973;28;20041;-70
2021/03/02 12:15:06;;;;;;;4.72;2.80;;;19.50;60.20;;;;;;5038418;28;20147;-71
2021/03/02 12:17:34;;;;;;;3.05;2.38;;;19.50;58.80;;;;;;5034654;28;20037;-70
2021/03/02 12:20:01;;;;;;;4.05;2.70;;;19.50;58.60;;;;;;5036247;28;20061;-70
2021/03/02 12:22:29;;;;;;;3.72;2.63;;;19.60;59.60;;;;;;5021649;28;20054;-70
2021/03/02 12:24:56;;;;;;;4.72;2.58;;;19.70;58.00;;;;;;5016621;28;20092;-70
2021/03/02 12:27:24;;;;;;;4.03;2.72;;;19.80;56.70;;;;;;5012730;28;20177;-70
2021/03/02 12:29:52;;;;;;;3.25;2.33;;;19.90;56.40;;;;;;5019647;28;20033;-72
2021/03/02 12:32:20;;;;;;;3.58;1.80;;;19.90;57.30;;;;;;5003479;28;20060;-70
2021/03/02 12:34:47;;;;;;;2.80;1.95;;;20.00;56.10;;;;;;5036937;28;20156;-70
2021/03/02 12:37:16;;;;;;;3.40;2.08;;;20.00;56.00;;;;;;5038364;28;20045;-70
2021/03/02 12:39:43;;;;;;;3.67;2.13;;;20.10;55.60;;;;;;5016972;28;20037;-70
2021/03/02 12:42:11;;;;;;;7.00;2.85;;;20.20;54.90;;;;;;5035441;28;20041;-71
2021/03/02 12:44:38;;;;;;;5.18;2.20;;;20.40;55.20;;;;;;5018563;28;20045;-70
2021/03/02 12:47:07;;;;;;;4.00;2.38;;;20.40;54.50;;;;;;5020263;28;20048;-72
2021/03/02 12:49:34;;;;;;;4.40;2.50;;;20.40;54.80;;;;;;5023532;28;20068;-72
2021/03/02 12:52:03;;;;;;;3.03;2.08;;;20.50;54.90;;;;;;5006159;28;20321;-74
2021/03/02 12:54:31;;;;;;;2.80;2.03;;;20.50;55.50;;;;;;5018313;28;20041;-73
2021/03/02 12:56:58;;;;;;;4.03;2.65;;;20.60;54.80;;;;;;5035467;28;20045;-73
2021/03/02 12:59:25;;;;;;;2.75;2.10;;;20.70;55.10;;;;;;5050117;28;20041;-73
2021/03/02 13:01:54;;;;;;;3.25;2.28;;;20.60;54.20;;;;;;5053483;28;20037;-73